sensor_id;sensor_type;location;lat;lon;timestamp;temperature;humidity
72320;SHT30;60269;52.502;16.732;2022-07-25T00:00:13;15.81;81.50
72320;SHT30;60269;52.502;16.732;2022-07-25T00:04:07;15.79;81.46
72320;SHT30;60269;52.502;16.732;2022-07-25T00:08:00;15.68;81.71
72320;SHT30;60269;52.502;16.732;2022-07-25T00:11:38;15.61;82.24
72320;SHT30;60269;52.502;16.732;2022-07-25T00:15:37;15.55;82.33
72320;SHT30;60269;52.502;16.732;2022-07-25T00:19:22;15.54;82.53
72320;SHT30;60269;52.502;16.732;2022-07-25T00:23:07;15.51;82.71
72320;SHT30;60269;52.502;16.732;2022-07-25T00:26:52;15.53;82.71
72320;SHT30;60269;52.502;16.732;2022-07-25T00:30:37;15.50;83.09
72320;SHT30;60269;52.502;16.732;2022-07-25T00:34:22;15.51;83.36
72320;SHT30;60269;52.502;16.732;2022-07-25T00:38:14;15.53;83.65
72320;SHT30;60269;52.502;16.732;2022-07-25T00:41:59;15.48;84.03
72320;SHT30;60269;52.502;16.732;2022-07-25T00:45:44;15.36;84.63
72320;SHT30;60269;52.502;16.732;2022-07-25T00:49:29;15.33;84.80
72320;SHT30;60269;52.502;16.732;2022-07-25T00:53:28;15.46;84.55
72320;SHT30;60269;52.502;16.732;2022-07-25T00:57:06;15.47;84.21
72320;SHT30;60269;52.502;16.732;2022-07-25T01:01:05;15.38;84.39
72320;SHT30;60269;52.502;16.732;2022-07-25T01:05:05;15.44;84.27
72320;SHT30;60269;52.502;16.732;2022-07-25T01:08:43;15.36;84.39
72320;SHT30;60269;52.502;16.732;2022-07-25T01:12:47;15.40;84.37
72320;SHT30;60269;52.502;16.732;2022-07-25T01:16:26;15.36;84.69
72320;SHT30;60269;52.502;16.732;2022-07-25T01:20:26;15.30;85.06
72320;SHT30;60269;52.502;16.732;2022-07-25T01:24:26;15.20;85.35
72320;SHT30;60269;52.502;16.732;2022-07-25T01:28:04;15.17;85.51
72320;SHT30;60269;52.502;16.732;2022-07-25T01:32:03;15.14;85.49
72320;SHT30;60269;52.502;16.732;2022-07-25T01:35:48;15.28;84.75
72320;SHT30;60269;52.502;16.732;2022-07-25T01:39:34;15.23;84.92
72320;SHT30;60269;52.502;16.732;2022-07-25T01:43:19;15.13;85.18
72320;SHT30;60269;52.502;16.732;2022-07-25T01:47:11;15.06;85.51
72320;SHT30;60269;52.502;16.732;2022-07-25T01:50:49;14.96;85.89
72320;SHT30;60269;52.502;16.732;2022-07-25T01:54:41;15.03;85.74
72320;SHT30;60269;52.502;16.732;2022-07-25T01:58:26;15.02;85.83
72320;SHT30;60269;52.502;16.732;2022-07-25T02:02:11;14.92;86.03
72320;SHT30;60269;52.502;16.732;2022-07-25T02:06:01;15.03;85.67
72320;SHT30;60269;52.502;16.732;2022-07-25T02:09:53;15.00;85.67
72320;SHT30;60269;52.502;16.732;2022-07-25T02:13:38;14.96;85.88
72320;SHT30;60269;52.502;16.732;2022-07-25T02:17:30;14.90;86.03
72320;SHT30;60269;52.502;16.732;2022-07-25T02:21:15;14.89;86.09
72320;SHT30;60269;52.502;16.732;2022-07-25T02:25:07;14.83;86.46
72320;SHT30;60269;52.502;16.732;2022-07-25T02:28:52;14.76;86.68
72320;SHT30;60269;52.502;16.732;2022-07-25T02:32:44;14.83;86.72
72320;SHT30;60269;52.502;16.732;2022-07-25T02:36:29;14.76;86.76
72320;SHT30;60269;52.502;16.732;2022-07-25T02:40:21;14.69;87.07
72320;SHT30;60269;52.502;16.732;2022-07-25T02:43:59;14.73;86.94
72320;SHT30;60269;52.502;16.732;2022-07-25T02:47:51;14.71;87.24
72320;SHT30;60269;52.502;16.732;2022-07-25T02:51:36;14.67;87.42
72320;SHT30;60269;52.502;16.732;2022-07-25T02:55:21;14.64;87.48
72320;SHT30;60269;52.502;16.732;2022-07-25T02:59:06;14.71;87.18
72320;SHT30;60269;52.502;16.732;2022-07-25T03:02:51;14.62;87.42
72320;SHT30;60269;52.502;16.732;2022-07-25T03:06:36;14.58;87.38
72320;SHT30;60269;52.502;16.732;2022-07-25T03:10:22;14.55;87.86
72320;SHT30;60269;52.502;16.732;2022-07-25T03:14:07;14.55;87.86
72320;SHT30;60269;52.502;16.732;2022-07-25T03:18:00;14.48;87.95
72320;SHT30;60269;52.502;16.732;2022-07-25T03:21:38;14.55;87.64
72320;SHT30;60269;52.502;16.732;2022-07-25T03:25:30;14.52;87.61
72320;SHT30;60269;52.502;16.732;2022-07-25T03:29:15;14.58;87.71
72320;SHT30;60269;52.502;16.732;2022-07-25T03:33:00;14.65;87.55
72320;SHT30;60269;52.502;16.732;2022-07-25T03:36:45;14.68;87.33
72320;SHT30;60269;52.502;16.732;2022-07-25T03:40:37;14.76;87.03
72320;SHT30;60269;52.502;16.732;2022-07-25T03:44:23;14.85;86.84
72320;SHT30;60269;52.502;16.732;2022-07-25T03:48:15;14.89;86.81
72320;SHT30;60269;52.502;16.732;2022-07-25T03:52:01;14.95;86.62
72320;SHT30;60269;52.502;16.732;2022-07-25T03:55:46;15.02;86.39
72320;SHT30;60269;52.502;16.732;2022-07-25T03:59:31;15.17;86.13
72320;SHT30;60269;52.502;16.732;2022-07-25T04:03:23;15.23;86.06
72320;SHT30;60269;52.502;16.732;2022-07-25T04:07:09;15.34;85.38
72320;SHT30;60269;52.502;16.732;2022-07-25T04:11:08;15.44;85.36
72320;SHT30;60269;52.502;16.732;2022-07-25T04:15:07;15.62;84.46
72320;SHT30;60269;52.502;16.732;2022-07-25T04:19:06;15.72;84.55
72320;SHT30;60269;52.502;16.732;2022-07-25T04:22:45;15.91;83.70
72320;SHT30;60269;52.502;16.732;2022-07-25T04:26:37;16.12;82.69
72320;SHT30;60269;52.502;16.732;2022-07-25T04:30:15;16.37;81.12
72320;SHT30;60269;52.502;16.732;2022-07-25T04:34:14;16.53;81.28
72320;SHT30;60269;52.502;16.732;2022-07-25T04:38:13;16.67;80.28
72320;SHT30;60269;52.502;16.732;2022-07-25T04:42:12;16.85;79.15
72320;SHT30;60269;52.502;16.732;2022-07-25T04:45:50;17.08;78.19
72320;SHT30;60269;52.502;16.732;2022-07-25T04:49:42;17.25;77.87
72320;SHT30;60269;52.502;16.732;2022-07-25T04:53:27;17.42;77.49
72320;SHT30;60269;52.502;16.732;2022-07-25T04:57:12;17.65;75.27
72320;SHT30;60269;52.502;16.732;2022-07-25T05:00:57;17.94;74.76
72320;SHT30;60269;52.502;16.732;2022-07-25T05:04:42;18.31;73.05
72320;SHT30;60269;52.502;16.732;2022-07-25T05:08:29;18.77;71.38
72320;SHT30;60269;52.502;16.732;2022-07-25T05:12:21;19.07;70.12
72320;SHT30;60269;52.502;16.732;2022-07-25T05:16:06;19.41;68.59
72320;SHT30;60269;52.502;16.732;2022-07-25T05:19:58;19.93;66.76
72320;SHT30;60269;52.502;16.732;2022-07-25T05:23:36;20.79;64.00
72320;SHT30;60269;52.502;16.732;2022-07-25T05:27:28;21.30;61.50
72320;SHT30;60269;52.502;16.732;2022-07-25T05:31:13;21.63;60.10
72320;SHT30;60269;52.502;16.732;2022-07-25T05:35:06;21.54;59.35
72320;SHT30;60269;52.502;16.732;2022-07-25T05:38:44;21.90;56.82
72320;SHT30;60269;52.502;16.732;2022-07-25T05:42:43;22.41;55.68
72320;SHT30;60269;52.502;16.732;2022-07-25T05:46:47;22.86;54.30
72320;SHT30;60269;52.502;16.732;2022-07-25T05:50:25;23.21;53.08
72320;SHT30;60269;52.502;16.732;2022-07-25T05:54:24;23.65;51.63
72320;SHT30;60269;52.502;16.732;2022-07-25T05:58:02;23.34;50.55
72320;SHT30;60269;52.502;16.732;2022-07-25T06:01:54;23.40;50.64
72320;SHT30;60269;52.502;16.732;2022-07-25T06:05:33;23.51;49.80
72320;SHT30;60269;52.502;16.732;2022-07-25T06:09:31;23.86;49.31
72320;SHT30;60269;52.502;16.732;2022-07-25T06:13:31;24.17;47.87
72320;SHT30;60269;52.502;16.732;2022-07-25T06:17:11;24.17;47.64
72320;SHT30;60269;52.502;16.732;2022-07-25T06:21:16;24.47;47.07
72320;SHT30;60269;52.502;16.732;2022-07-25T06:25:15;25.42;45.20
72320;SHT30;60269;52.502;16.732;2022-07-25T06:28:53;25.15;45.90
72320;SHT30;60269;52.502;16.732;2022-07-25T06:32:52;24.76;45.39
72320;SHT30;60269;52.502;16.732;2022-07-25T06:36:37;24.64;45.77
72320;SHT30;60269;52.502;16.732;2022-07-25T06:40:29;25.09;45.11
72320;SHT30;60269;52.502;16.732;2022-07-25T06:44:14;25.94;44.10
72320;SHT30;60269;52.502;16.732;2022-07-25T06:48:06;25.74;43.52
72320;SHT30;60269;52.502;16.732;2022-07-25T06:51:44;26.08;43.78
72320;SHT30;60269;52.502;16.732;2022-07-25T06:55:36;26.02;42.83
72320;SHT30;60269;52.502;16.732;2022-07-25T06:59:21;25.11;44.33
72320;SHT30;60269;52.502;16.732;2022-07-25T07:03:13;25.22;44.72
72320;SHT30;60269;52.502;16.732;2022-07-25T07:06:51;25.61;43.87
72320;SHT30;60269;52.502;16.732;2022-07-25T07:10:43;26.05;41.96
72320;SHT30;60269;52.502;16.732;2022-07-25T07:14:21;26.42;41.53
72320;SHT30;60269;52.502;16.732;2022-07-25T07:18:13;26.98;40.13
72320;SHT30;60269;52.502;16.732;2022-07-25T07:21:58;27.00;39.97
72320;SHT30;60269;52.502;16.732;2022-07-25T07:25:50;26.70;39.86
72320;SHT30;60269;52.502;16.732;2022-07-25T07:29:28;26.87;39.83
72320;SHT30;60269;52.502;16.732;2022-07-25T07:33:20;27.04;38.43
72320;SHT30;60269;52.502;16.732;2022-07-25T07:37:05;27.17;38.44
72320;SHT30;60269;52.502;16.732;2022-07-25T07:40:51;26.21;38.47
72320;SHT30;60269;52.502;16.732;2022-07-25T07:44:36;26.72;37.89
72320;SHT30;60269;52.502;16.732;2022-07-25T07:48:29;27.04;37.49
72320;SHT30;60269;52.502;16.732;2022-07-25T07:52:15;27.67;36.60
72320;SHT30;60269;52.502;16.732;2022-07-25T07:56:00;27.66;35.93
72320;SHT30;60269;52.502;16.732;2022-07-25T07:59:45;28.27;35.90
72320;SHT30;60269;52.502;16.732;2022-07-25T08:03:37;28.68;33.71
72320;SHT30;60269;52.502;16.732;2022-07-25T08:07:15;28.04;35.25
72320;SHT30;60269;52.502;16.732;2022-07-25T08:11:07;28.18;34.60
72320;SHT30;60269;52.502;16.732;2022-07-25T08:14:52;27.97;34.78
72320;SHT30;60269;52.502;16.732;2022-07-25T08:18:44;27.75;34.42
72320;SHT30;60269;52.502;16.732;2022-07-25T08:22:40;28.43;34.87
72320;SHT30;60269;52.502;16.732;2022-07-25T08:26:30;27.89;33.04
72320;SHT30;60269;52.502;16.732;2022-07-25T08:30:18;28.07;34.27
72320;SHT30;60269;52.502;16.732;2022-07-25T08:34:09;28.36;33.63
72320;SHT30;60269;52.502;16.732;2022-07-25T08:37:55;28.14;32.96
72320;SHT30;60269;52.502;16.732;2022-07-25T08:41:41;28.81;31.97
72320;SHT30;60269;52.502;16.732;2022-07-25T08:45:27;28.99;31.72
72320;SHT30;60269;52.502;16.732;2022-07-25T08:49:19;29.45;31.76
72320;SHT30;60269;52.502;16.732;2022-07-25T08:52:57;29.91;30.14
72320;SHT30;60269;52.502;16.732;2022-07-25T08:57:09;29.51;30.97
72320;SHT30;60269;52.502;16.732;2022-07-25T09:00:56;29.13;30.71
72320;SHT30;60269;52.502;16.732;2022-07-25T09:04:48;28.74;31.51
72320;SHT30;60269;52.502;16.732;2022-07-25T09:08:33;29.16;30.78
72320;SHT30;60269;52.502;16.732;2022-07-25T09:12:26;29.19;31.23
72320;SHT30;60269;52.502;16.732;2022-07-25T09:16:06;29.27;31.02
72320;SHT30;60269;52.502;16.732;2022-07-25T09:19:58;29.80;30.26
72320;SHT30;60269;52.502;16.732;2022-07-25T09:23:43;29.77;30.25
72320;SHT30;60269;52.502;16.732;2022-07-25T09:27:31;30.24;29.36
72320;SHT30;60269;52.502;16.732;2022-07-25T09:31:19;30.26;29.07
72320;SHT30;60269;52.502;16.732;2022-07-25T09:35:11;29.85;27.92
72320;SHT30;60269;52.502;16.732;2022-07-25T09:38:57;29.87;28.90
72320;SHT30;60269;52.502;16.732;2022-07-25T09:42:50;29.56;28.95
72320;SHT30;60269;52.502;16.732;2022-07-25T09:46:36;30.47;29.25
72320;SHT30;60269;52.502;16.732;2022-07-25T09:50:23;29.71;28.37
72320;SHT30;60269;52.502;16.732;2022-07-25T09:54:08;29.78;29.51
72320;SHT30;60269;52.502;16.732;2022-07-25T09:58:00;30.35;27.94
72320;SHT30;60269;52.502;16.732;2022-07-25T10:01:51;29.95;28.30
72320;SHT30;60269;52.502;16.732;2022-07-25T10:09:46;30.16;27.90
72320;SHT30;60269;52.502;16.732;2022-07-25T10:13:38;31.32;26.66
72320;SHT30;60269;52.502;16.732;2022-07-25T10:17:23;30.93;26.79
72320;SHT30;60269;52.502;16.732;2022-07-25T10:21:10;31.83;26.18
72320;SHT30;60269;52.502;16.732;2022-07-25T10:25:16;30.82;26.55
72320;SHT30;60269;52.502;16.732;2022-07-25T10:29:09;30.26;27.83
72320;SHT30;60269;52.502;16.732;2022-07-25T10:32:59;30.70;27.43
72320;SHT30;60269;52.502;16.732;2022-07-25T10:37:11;30.73;26.82
72320;SHT30;60269;52.502;16.732;2022-07-25T10:40:59;31.58;26.35
72320;SHT30;60269;52.502;16.732;2022-07-25T10:44:48;31.59;25.35
72320;SHT30;60269;52.502;16.732;2022-07-25T10:48:36;31.49;26.61
72320;SHT30;60269;52.502;16.732;2022-07-25T10:52:26;31.90;25.48
72320;SHT30;60269;52.502;16.732;2022-07-25T10:56:20;31.90;25.57
72320;SHT30;60269;52.502;16.732;2022-07-25T11:00:12;31.34;26.00
72320;SHT30;60269;52.502;16.732;2022-07-25T11:04:00;31.39;26.22
72320;SHT30;60269;52.502;16.732;2022-07-25T11:07:52;32.00;26.33
72320;SHT30;60269;52.502;16.732;2022-07-25T11:11:58;32.99;26.25
72320;SHT30;60269;52.502;16.732;2022-07-25T11:15:43;32.17;24.93
72320;SHT30;60269;52.502;16.732;2022-07-25T11:19:28;32.45;25.86
72320;SHT30;60269;52.502;16.732;2022-07-25T11:23:20;31.88;25.84
72320;SHT30;60269;52.502;16.732;2022-07-25T11:27:07;33.86;23.97
72320;SHT30;60269;52.502;16.732;2022-07-25T11:31:03;33.96;23.63
72320;SHT30;60269;52.502;16.732;2022-07-25T11:34:49;34.63;22.92
72320;SHT30;60269;52.502;16.732;2022-07-25T11:38:46;34.99;22.46
72320;SHT30;60269;52.502;16.732;2022-07-25T11:42:40;34.25;22.45
72320;SHT30;60269;52.502;16.732;2022-07-25T11:46:25;34.69;23.35
72320;SHT30;60269;52.502;16.732;2022-07-25T11:50:10;35.81;21.96
72320;SHT30;60269;52.502;16.732;2022-07-25T11:54:09;36.23;20.60
72320;SHT30;60269;52.502;16.732;2022-07-25T11:57:47;33.33;22.89
72320;SHT30;60269;52.502;16.732;2022-07-25T12:01:40;33.52;23.85
72320;SHT30;60269;52.502;16.732;2022-07-25T12:05:30;33.16;24.07
72320;SHT30;60269;52.502;16.732;2022-07-25T12:09:22;34.80;22.35
72320;SHT30;60269;52.502;16.732;2022-07-25T12:13:01;35.84;21.86
72320;SHT30;60269;52.502;16.732;2022-07-25T12:16:54;36.71;20.46
72320;SHT30;60269;52.502;16.732;2022-07-25T12:20:38;35.64;21.31
72320;SHT30;60269;52.502;16.732;2022-07-25T12:24:37;35.11;22.03
72320;SHT30;60269;52.502;16.732;2022-07-25T12:28:16;35.54;21.09
72320;SHT30;60269;52.502;16.732;2022-07-25T12:32:14;34.24;21.94
72320;SHT30;60269;52.502;16.732;2022-07-25T12:36:13;34.93;22.06
72320;SHT30;60269;52.502;16.732;2022-07-25T12:39:52;35.04;21.04
72320;SHT30;60269;52.502;16.732;2022-07-25T12:43:51;36.09;21.29
72320;SHT30;60269;52.502;16.732;2022-07-25T12:47:30;36.78;20.09
72320;SHT30;60269;52.502;16.732;2022-07-25T12:51:21;36.77;20.55
72320;SHT30;60269;52.502;16.732;2022-07-25T12:54:59;34.42;22.62
72320;SHT30;60269;52.502;16.732;2022-07-25T12:58:51;33.88;22.62
72320;SHT30;60269;52.502;16.732;2022-07-25T13:02:36;34.09;22.60
72320;SHT30;60269;52.502;16.732;2022-07-25T13:06:28;34.92;22.30
72320;SHT30;60269;52.502;16.732;2022-07-25T13:10:17;34.67;21.60
72320;SHT30;60269;52.502;16.732;2022-07-25T13:14:02;33.94;22.55
72320;SHT30;60269;52.502;16.732;2022-07-25T13:17:48;34.90;22.47
72320;SHT30;60269;52.502;16.732;2022-07-25T13:21:41;34.60;22.64
72320;SHT30;60269;52.502;16.732;2022-07-25T13:25:22;36.71;20.00
72320;SHT30;60269;52.502;16.732;2022-07-25T13:29:14;36.51;20.20
72320;SHT30;60269;52.502;16.732;2022-07-25T13:33:00;35.38;21.15
72320;SHT30;60269;52.502;16.732;2022-07-25T13:36:47;35.03;22.21
72320;SHT30;60269;52.502;16.732;2022-07-25T13:40:32;34.37;22.43
72320;SHT30;60269;52.502;16.732;2022-07-25T13:44:32;36.62;20.56
72320;SHT30;60269;52.502;16.732;2022-07-25T13:48:17;35.77;20.69
72320;SHT30;60269;52.502;16.732;2022-07-25T13:52:15;36.62;20.23
72320;SHT30;60269;52.502;16.732;2022-07-25T13:55:55;35.98;20.71
72320;SHT30;60269;52.502;16.732;2022-07-25T13:59:54;37.32;19.72
72320;SHT30;60269;52.502;16.732;2022-07-25T14:03:33;38.94;18.28
72320;SHT30;60269;52.502;16.732;2022-07-25T14:07:33;37.58;19.68
72320;SHT30;60269;52.502;16.732;2022-07-25T14:11:12;36.99;20.08
72320;SHT30;60269;52.502;16.732;2022-07-25T14:15:04;35.70;21.53
72320;SHT30;60269;52.502;16.732;2022-07-25T14:18:43;36.92;20.31
72320;SHT30;60269;52.502;16.732;2022-07-25T14:22:41;37.89;18.96
72320;SHT30;60269;52.502;16.732;2022-07-25T14:26:21;38.51;18.35
72320;SHT30;60269;52.502;16.732;2022-07-25T14:30:21;38.71;18.88
72320;SHT30;60269;52.502;16.732;2022-07-25T14:34:00;36.43;20.18
72320;SHT30;60269;52.502;16.732;2022-07-25T14:37:51;34.63;21.39
72320;SHT30;60269;52.502;16.732;2022-07-25T14:41:29;35.59;21.28
72320;SHT30;60269;52.502;16.732;2022-07-25T14:45:29;36.44;20.28
72320;SHT30;60269;52.502;16.732;2022-07-25T14:49:28;36.37;20.29
72320;SHT30;60269;52.502;16.732;2022-07-25T14:53:14;35.89;20.97
72320;SHT30;60269;52.502;16.732;2022-07-25T14:57:07;35.31;21.53
72320;SHT30;60269;52.502;16.732;2022-07-25T15:00:45;36.28;20.34
72320;SHT30;60269;52.502;16.732;2022-07-25T15:04:37;35.82;20.34
72320;SHT30;60269;52.502;16.732;2022-07-25T15:08:23;34.97;21.38
72320;SHT30;60269;52.502;16.732;2022-07-25T15:12:14;36.20;20.70
72320;SHT30;60269;52.502;16.732;2022-07-25T15:16:01;35.26;21.29
72320;SHT30;60269;52.502;16.732;2022-07-25T15:19:45;35.52;21.33
72320;SHT30;60269;52.502;16.732;2022-07-25T15:23:31;34.59;21.71
72320;SHT30;60269;52.502;16.732;2022-07-25T15:27:22;35.20;21.90
72320;SHT30;60269;52.502;16.732;2022-07-25T15:31:07;36.35;21.03
72320;SHT30;60269;52.502;16.732;2022-07-25T15:34:59;35.84;20.64
72320;SHT30;60269;52.502;16.732;2022-07-25T15:38:45;36.40;20.23
72320;SHT30;60269;52.502;16.732;2022-07-25T15:42:37;36.41;21.09
72320;SHT30;60269;52.502;16.732;2022-07-25T15:46:22;36.37;20.43
72320;SHT30;60269;52.502;16.732;2022-07-25T15:50:13;36.90;20.37
72320;SHT30;60269;52.502;16.732;2022-07-25T15:53:52;35.65;21.00
72320;SHT30;60269;52.502;16.732;2022-07-25T15:57:43;35.77;21.11
72320;SHT30;60269;52.502;16.732;2022-07-25T16:01:29;36.43;20.56
72320;SHT30;60269;52.502;16.732;2022-07-25T16:05:13;35.75;21.26
72320;SHT30;60269;52.502;16.732;2022-07-25T16:09:00;36.58;20.84
72320;SHT30;60269;52.502;16.732;2022-07-25T16:12:51;37.31;20.49
72320;SHT30;60269;52.502;16.732;2022-07-25T16:16:30;36.99;20.56
72320;SHT30;60269;52.502;16.732;2022-07-25T16:20:22;35.45;21.05
72320;SHT30;60269;52.502;16.732;2022-07-25T16:24:07;36.19;20.75
72320;SHT30;60269;52.502;16.732;2022-07-25T16:27:58;36.16;21.13
72320;SHT30;60269;52.502;16.732;2022-07-25T16:31:37;35.85;21.66
72320;SHT30;60269;52.502;16.732;2022-07-25T16:35:30;35.59;21.77
72320;SHT30;60269;52.502;16.732;2022-07-25T16:39:15;35.89;21.44
72320;SHT30;60269;52.502;16.732;2022-07-25T16:43:06;35.89;21.52
72320;SHT30;60269;52.502;16.732;2022-07-25T16:46:52;34.37;23.20
72320;SHT30;60269;52.502;16.732;2022-07-25T16:50:43;34.49;22.54
72320;SHT30;60269;52.502;16.732;2022-07-25T16:54:22;34.86;22.65
72320;SHT30;60269;52.502;16.732;2022-07-25T16:58:06;33.74;23.82
72320;SHT30;60269;52.502;16.732;2022-07-25T17:01:51;33.43;24.32
72320;SHT30;60269;52.502;16.732;2022-07-25T17:05:50;33.02;25.04
72320;SHT30;60269;52.502;16.732;2022-07-25T17:09:49;33.96;24.54
72320;SHT30;60269;52.502;16.732;2022-07-25T17:13:28;34.02;23.89
72320;SHT30;60269;52.502;16.732;2022-07-25T17:17:26;34.24;23.96
72320;SHT30;60269;52.502;16.732;2022-07-25T17:21:05;34.87;23.30
72320;SHT30;60269;52.502;16.732;2022-07-25T17:25:05;35.02;22.77
72320;SHT30;60269;52.502;16.732;2022-07-25T17:28:44;35.08;23.34
72320;SHT30;60269;52.502;16.732;2022-07-25T17:32:37;34.99;23.62
72320;SHT30;60269;52.502;16.732;2022-07-25T17:36:16;34.14;24.13
72320;SHT30;60269;52.502;16.732;2022-07-25T17:40:14;32.68;26.33
72320;SHT30;60269;52.502;16.732;2022-07-25T17:43:59;33.34;25.33
72320;SHT30;60269;52.502;16.732;2022-07-25T17:47:49;32.36;26.56
72320;SHT30;60269;52.502;16.732;2022-07-25T17:51:35;31.45;27.74
72320;SHT30;60269;52.502;16.732;2022-07-25T17:55:27;31.18;28.29
72320;SHT30;60269;52.502;16.732;2022-07-25T17:59:10;31.32;28.37
72320;SHT30;60269;52.502;16.732;2022-07-25T18:03:01;31.04;28.46
72320;SHT30;60269;52.502;16.732;2022-07-25T18:06:40;30.33;29.55
72320;SHT30;60269;52.502;16.732;2022-07-25T18:10:38;29.89;30.20
72320;SHT30;60269;52.502;16.732;2022-07-25T18:14:17;29.64;30.43
72320;SHT30;60269;52.502;16.732;2022-07-25T18:18:09;29.30;31.04
72320;SHT30;60269;52.502;16.732;2022-07-25T18:21:51;29.05;31.48
72320;SHT30;60269;52.502;16.732;2022-07-25T18:25:50;28.79;31.84
72320;SHT30;60269;52.502;16.732;2022-07-25T18:29:49;28.51;32.54
72320;SHT30;60269;52.502;16.732;2022-07-25T18:33:28;28.25;33.05
72320;SHT30;60269;52.502;16.732;2022-07-25T18:37:27;28.12;33.27
72320;SHT30;60269;52.502;16.732;2022-07-25T18:41:25;27.89;33.75
72320;SHT30;60269;52.502;16.732;2022-07-25T18:45:24;27.65;34.31
72320;SHT30;60269;52.502;16.732;2022-07-25T18:49:03;27.49;34.75
72320;SHT30;60269;52.502;16.732;2022-07-25T18:53:01;27.33;35.02
72320;SHT30;60269;52.502;16.732;2022-07-25T18:56:41;27.11;35.35
72320;SHT30;60269;52.502;16.732;2022-07-25T19:00:34;27.03;35.64
72320;SHT30;60269;52.502;16.732;2022-07-25T19:04:19;26.86;36.12
72320;SHT30;60269;52.502;16.732;2022-07-25T19:08:04;26.66;36.54
72320;SHT30;60269;52.502;16.732;2022-07-25T19:11:49;26.48;37.04
72320;SHT30;60269;52.502;16.732;2022-07-25T19:15:34;26.35;37.19
72320;SHT30;60269;52.502;16.732;2022-07-25T19:19:19;26.26;37.52
72320;SHT30;60269;52.502;16.732;2022-07-25T19:23:10;26.12;37.88
72320;SHT30;60269;52.502;16.732;2022-07-25T19:26:56;26.05;38.02
72320;SHT30;60269;52.502;16.732;2022-07-25T19:30:47;25.94;38.36
72320;SHT30;60269;52.502;16.732;2022-07-25T19:34:33;25.77;38.67
72320;SHT30;60269;52.502;16.732;2022-07-25T19:38:18;25.71;39.28
72320;SHT30;60269;52.502;16.732;2022-07-25T19:42:03;25.63;39.32
72320;SHT30;60269;52.502;16.732;2022-07-25T19:45:55;25.66;39.46
72320;SHT30;60269;52.502;16.732;2022-07-25T19:49:41;25.61;39.61
72320;SHT30;60269;52.502;16.732;2022-07-25T19:53:39;25.61;39.65
72320;SHT30;60269;52.502;16.732;2022-07-25T19:57:18;25.53;40.00
72320;SHT30;60269;52.502;16.732;2022-07-25T20:01:16;25.59;39.82
72320;SHT30;60269;52.502;16.732;2022-07-25T20:05:15;25.59;39.84
72320;SHT30;60269;52.502;16.732;2022-07-25T20:08:54;25.53;40.00
72320;SHT30;60269;52.502;16.732;2022-07-25T20:12:45;25.46;40.10
72320;SHT30;60269;52.502;16.732;2022-07-25T20:16:30;25.43;40.31
72320;SHT30;60269;52.502;16.732;2022-07-25T20:20:28;25.34;40.33
72320;SHT30;60269;52.502;16.732;2022-07-25T20:24:27;25.37;40.41
72320;SHT30;60269;52.502;16.732;2022-07-25T20:28:06;25.34;40.61
72320;SHT30;60269;52.502;16.732;2022-07-25T20:32:05;25.36;40.39
72320;SHT30;60269;52.502;16.732;2022-07-25T20:36:05;25.36;40.34
72320;SHT30;60269;52.502;16.732;2022-07-25T20:39:43;25.40;40.20
72320;SHT30;60269;52.502;16.732;2022-07-25T20:43:42;25.39;40.27
72320;SHT30;60269;52.502;16.732;2022-07-25T20:47:41;25.36;40.33
72320;SHT30;60269;52.502;16.732;2022-07-25T20:51:20;25.34;40.32
72320;SHT30;60269;52.502;16.732;2022-07-25T20:55:11;25.37;39.97
72320;SHT30;60269;52.502;16.732;2022-07-25T20:58:57;25.37;39.73
72320;SHT30;60269;52.502;16.732;2022-07-25T21:02:48;25.46;39.27
72320;SHT30;60269;52.502;16.732;2022-07-25T21:06:27;25.44;39.35
72320;SHT30;60269;52.502;16.732;2022-07-25T21:10:23;25.27;39.97
72320;SHT30;60269;52.502;16.732;2022-07-25T21:14:08;25.20;39.84
72320;SHT30;60269;52.502;16.732;2022-07-25T21:17:52;25.20;39.74
72320;SHT30;60269;52.502;16.732;2022-07-25T21:21:38;25.23;39.28
72320;SHT30;60269;52.502;16.732;2022-07-25T21:25:29;25.34;39.27
72320;SHT30;60269;52.502;16.732;2022-07-25T21:29:08;25.15;40.33
72320;SHT30;60269;52.502;16.732;2022-07-25T21:33:00;25.16;39.74
72320;SHT30;60269;52.502;16.732;2022-07-25T21:36:43;25.27;39.60
72320;SHT30;60269;52.502;16.732;2022-07-25T21:40:34;25.44;39.13
72320;SHT30;60269;52.502;16.732;2022-07-25T21:44:20;25.50;38.56
72320;SHT30;60269;52.502;16.732;2022-07-25T21:48:05;25.61;38.42
72320;SHT30;60269;52.502;16.732;2022-07-25T21:51:50;25.64;38.22
72320;SHT30;60269;52.502;16.732;2022-07-25T21:55:41;25.57;38.36
72320;SHT30;60269;52.502;16.732;2022-07-25T21:59:27;25.39;38.69
72320;SHT30;60269;52.502;16.732;2022-07-25T22:03:11;25.44;38.86
72320;SHT30;60269;52.502;16.732;2022-07-25T22:06:57;25.30;39.37
72320;SHT30;60269;52.502;16.732;2022-07-25T22:10:41;25.12;39.92
72320;SHT30;60269;52.502;16.732;2022-07-25T22:14:27;25.02;40.13
72320;SHT30;60269;52.502;16.732;2022-07-25T22:18:18;24.95;40.49
72320;SHT30;60269;52.502;16.732;2022-07-25T22:21:57;24.86;40.68
72320;SHT30;60269;52.502;16.732;2022-07-25T22:25:48;24.76;41.01
72320;SHT30;60269;52.502;16.732;2022-07-25T22:29:27;24.69;41.08
72320;SHT30;60269;52.502;16.732;2022-07-25T22:33:18;24.68;41.28
72320;SHT30;60269;52.502;16.732;2022-07-25T22:36:57;24.63;41.37
72320;SHT30;60269;52.502;16.732;2022-07-25T22:40:48;24.58;41.58
72320;SHT30;60269;52.502;16.732;2022-07-25T22:44:34;24.51;41.83
72320;SHT30;60269;52.502;16.732;2022-07-25T22:48:18;24.37;42.10
72320;SHT30;60269;52.502;16.732;2022-07-25T22:52:04;24.20;43.30
72320;SHT30;60269;52.502;16.732;2022-07-25T22:56:03;24.02;44.18
72320;SHT30;60269;52.502;16.732;2022-07-25T23:00:05;23.82;44.41
72320;SHT30;60269;52.502;16.732;2022-07-25T23:03:45;24.03;44.01
72320;SHT30;60269;52.502;16.732;2022-07-25T23:07:44;23.85;43.97
72320;SHT30;60269;52.502;16.732;2022-07-25T23:11:43;24.16;42.79
72320;SHT30;60269;52.502;16.732;2022-07-25T23:15:22;24.24;42.44
72320;SHT30;60269;52.502;16.732;2022-07-25T23:19:34;24.17;42.59
72320;SHT30;60269;52.502;16.732;2022-07-25T23:23:13;24.09;42.74
72320;SHT30;60269;52.502;16.732;2022-07-25T23:27:12;24.13;42.23
72320;SHT30;60269;52.502;16.732;2022-07-25T23:30:51;24.34;42.32
72320;SHT30;60269;52.502;16.732;2022-07-25T23:34:50;24.33;41.90
72320;SHT30;60269;52.502;16.732;2022-07-25T23:38:49;24.31;42.01
72320;SHT30;60269;52.502;16.732;2022-07-25T23:42:28;24.23;42.59